Nearby METAR Reports

 

KISP - Islip, New York, USA
Distance from station: SW 4mi, 6km
Updated: Sun, 08/19/2018 4:56 pm EDT
Mostly cloudy
Mostly cloudy
 Wind from ENE
Wind: ENE 5 mph , 7 km/h
Temperature: 73°F , 23°C
Dew Point: 63°F , 17°C
Humidity: 69%
Barometer: 30.00 inHg , 1015.9 hPa
Clouds: Mostly cloudy
Visibility: 10 miles , 16 km
Cloud details: Few Clouds 2200 ft
Partly cloudy 3600 ft
Mostly cloudy 5000 ft
2018/08/19 20:56 KISP 192056Z 06004KT 10SM FEW022 SCT036 BKN050 23/17 A3000 RMK AO2 SLP159 T02280172 53004
KHWV - Shirley, New York, USA
Distance from station: E 10mi, 16km
Updated: Sun, 08/19/2018 4:56 pm EDT
Overcast
Overcast
 Wind from varies
Wind: varies 5 mph , 7 km/h
Temperature: 73°F , 23°C
Dew Point: 66°F , 19°C
Humidity: 78%
Barometer: 30.01 inHg , 1016.3 hPa
Clouds: Overcast
Visibility: 10 miles , 16 km
Cloud details: Mostly cloudy 5500 ft
Overcast 12000 ft
2018/08/19 20:56 KHWV 192056Z AUTO VRB04KT 10SM BKN055 OVC120 23/19 A3001 RMK AO2 SLP160 T02280189 53004 $
 
KFRG - Farmingdale, New York, USA
Distance from station: WSW 20mi, 33km
Updated: Sun, 08/19/2018 4:53 pm EDT
Overcast
Overcast
 Wind from ENE
Wind: ENE 3 mph , 6 km/h
Temperature: 72°F , 22°C
Dew Point: 63°F , 17°C
Humidity: 73%
Barometer: 30.01 inHg , 1016.3 hPa
Clouds: Overcast
Visibility: 10 miles , 16 km
Cloud details: Overcast 4600 ft
2018/08/19 20:53 KFRG 192053Z 06003KT 10SM OVC046 22/17 A3001 RMK AO2 SLP161 T02220172 53006
KBDR - Bridgeport, Connecticut, USA
Distance from station: N 23mi, 37km
Updated: Sun, 08/19/2018 4:52 pm EDT
Overcast
Overcast
 Wind from SE
Wind: SE 7 mph , 11 km/h
Temperature: 75°F , 24°C
Dew Point: 64°F , 18°C
Humidity: 69%
Barometer: 30.00 inHg , 1015.9 hPa
Clouds: Overcast
Visibility: 10 miles , 16 km
Cloud details: Overcast 7000 ft
2018/08/19 20:52 KBDR 192052Z 13006KT 10SM OVC070 24/18 A3000 RMK AO2 SLP160 T02390178 53003
 
KFOK - Westhampton Beac, New York, USA
Distance from station: E 23mi, 37km
Updated: Sun, 08/19/2018 4:53 pm EDT
Overcast
Overcast
 Wind from E
Wind: E 9 mph , 15 km/h
Temperature: 70°F , 21°C
Dew Point: 63°F , 17°C
Humidity: 78%
Barometer: 30.02 inHg , 1016.6 hPa
Clouds: Overcast
Visibility: 10 miles , 16 km
Cloud details: Few Clouds 2500 ft
Few Clouds 2900 ft
Overcast 6500 ft
2018/08/19 20:53 KFOK 192053Z 10008KT 10SM FEW025 FEW029 OVC065 21/17 A3002 RMK AO2 SLP166 T02110167 53006
KHVN - New Haven/Tweed, Connecticut, USA
Distance from station: NNE 31mi, 50km
Updated: Sun, 08/19/2018 4:53 pm EDT
Mostly cloudy
Mostly cloudy
 Wind from ENE
Wind: ENE 9 mph , 15 km/h
Temperature: 77°F , 25°C
Dew Point: 55°F , 13°C
Humidity: 47%
Barometer: 30.01 inHg , 1016.3 hPa
Clouds: Mostly cloudy
Visibility: 10 miles , 16 km
Cloud details: Partly cloudy 6500 ft
Mostly cloudy 9500 ft
2018/08/19 20:53 KHVN 192053Z 06008KT 10SM SCT065 BKN095 25/13 A3001 RMK AO2 SLP161 T02500133 53004
 
KHPN - White Plains, New York, USA
Distance from station: WNW 37mi, 60km
Updated: Sun, 08/19/2018 4:56 pm EDT
Light rain, Mostly cloudy
Light rain, Mostly cloudy
 Wind from calm
Wind: Calm
Temperature: 70°F , 21°C
Dew Point: 66°F , 19°C
Humidity: 88%
Barometer: 30.02 inHg , 1016.6 hPa
Summary: Light rain
Clouds: Mostly cloudy
Visibility: 7 miles , 11 km
Cloud details: Few Clouds 500 ft
Mostly cloudy 4800 ft
2018/08/19 20:56 KHPN 192056Z 00000KT 7SM -RA FEW005 BKN048 21/19 A3002 RMK AO2 SLP161 P0005 60011 T02060189 53003 $
KJFK - Nyc/Jfk Arpt, New York, USA
Distance from station: WSW 40mi, 64km
Updated: Sun, 08/19/2018 4:51 pm EDT
Overcast
Overcast
 Wind from ENE
Wind: ENE 9 mph , 15 km/h
Temperature: 73°F , 23°C
Dew Point: 64°F , 18°C
Humidity: 74%
Barometer: 30.01 inHg , 1016.3 hPa
Clouds: Overcast
Visibility: 10 miles , 16 km
Cloud details: Few Clouds 2300 ft
Overcast 4000 ft
2018/08/19 20:51 KJFK 192051Z 07008KT 10SM FEW023 OVC040 23/18 A3001 RMK AO2 SLP162 T02280183 53003
 
KDXR - Danbury, Connecticut, USA
Distance from station: NNW 42mi, 68km
Updated: Sun, 08/19/2018 4:53 pm EDT
Overcast
Overcast
 Wind from NE
Wind: NE 7 mph , 11 km/h
Temperature: 73°F , 23°C
Dew Point: 61°F , 16°C
Humidity: 65%
Barometer: 30.03 inHg , 1016.9 hPa
Clouds: Overcast
Visibility: 10 miles , 16 km
Cloud details: Few Clouds 4200 ft
Overcast 5500 ft
2018/08/19 20:53 KDXR 192053Z 04006KT 10SM FEW042 OVC055 23/16 A3003 RMK AO2 SLP167 T02280161 53003 $
KHTO - East Hampton, New York, USA
Distance from station: E 43mi, 69km
Updated: Sun, 08/19/2018 4:55 pm EDT
Overcast
Overcast
 Wind from E
Wind: E 7 mph , 11 km/h
Temperature: 72°F , 22°C
Dew Point: 61°F , 16°C
Humidity: 69%
Barometer: 30.01 inHg , 1016.3 hPa
Clouds: Overcast
Visibility: 10 miles , 16 km
Cloud details: Partly cloudy 6500 ft
Overcast 7000 ft
2018/08/19 20:55 KHTO 192055Z AUTO 09006KT 10SM SCT065 OVC070 22/16 A3001 RMK AO2 T02150163
 
KOXC - Oxford/Waterbury, Connecticut, USA
Distance from station: N 43mi, 70km
Updated: Sun, 08/19/2018 4:51 pm EDT
Overcast
Overcast
 Wind from ENE
Wind: ENE 3 mph , 6 km/h
Temperature: 73°F , 23°C
Dew Point: 61°F , 16°C
Humidity: 65%
Barometer: 30.04 inHg , 1017.3 hPa
Clouds: Overcast
Visibility: 10 miles , 16 km
Cloud details: Partly cloudy 3500 ft
Overcast 5500 ft
2018/08/19 20:51 KOXC 192051Z 07003KT 10SM SCT035 OVC055 23/16 A3004 RMK AO2 SLP180 T02280156 53003
KLGA - Nyc/La Guardia, New York, USA
Distance from station: W 44mi, 70km
Updated: Sun, 08/19/2018 4:51 pm EDT
Overcast
Overcast
 Wind from NNE
Wind: NNE 8 mph , 13 km/h
Temperature: 73°F , 23°C
Dew Point: 64°F , 18°C
Humidity: 74%
Barometer: 30.00 inHg , 1015.9 hPa
Clouds: Overcast
Visibility: 10 miles , 16 km
Cloud details: Overcast 4100 ft
2018/08/19 20:51 KLGA 192051Z 02007KT 10SM OVC041 23/18 A3000 RMK AO2 RAE13 SLP158 P0000 60010 T02330183 51003 $
 
KSNC - Chester, Connecticut, USA
Distance from station: NE 47mi, 76km
Updated: Sun, 08/19/2018 4:55 pm EDT
Few Clouds
Few Clouds
 Wind from ENE
Wind: ENE 7 mph , 11 km/h, Gust: 14 mph , 22 km/h
Temperature: 75°F , 24°C
Dew Point: 55°F , 13°C
Humidity: 50%
Barometer: 30.02 inHg , 1016.6 hPa
Clouds: Few Clouds
Visibility: 10 miles , 16 km
Cloud details: Few Clouds 7500 ft
2018/08/19 20:55 KSNC 192055Z AUTO 06006G12KT 10SM FEW075 24/13 A3002 RMK AO2
KMMK - Meriden, Connecticut, USA
Distance from station: NNE 48mi, 77km
Updated: Sun, 08/19/2018 4:53 pm EDT
Overcast
Overcast
 Wind from ENE
Wind: ENE 7 mph , 11 km/h
Temperature: 75°F , 24°C
Dew Point: 57°F , 14°C
Humidity: 54%
Barometer: 30.01 inHg , 1016.3 hPa
Clouds: Overcast
Visibility: 10 miles , 16 km
Cloud details: Overcast 9000 ft
2018/08/19 20:53 KMMK 192053Z AUTO 06006KT 10SM OVC090 24/14 A3001 RMK AO2 SLP161 T02440144 53003
 
KNYC - Nyc/Central Park, New York, USA
Distance from station: W 48mi, 77km
Updated: Sun, 08/19/2018 4:51 pm EDT
Overcast
Overcast
 Wind from NE
Wind: NE 5 mph , 7 km/h
Temperature: 72°F , 22°C
Dew Point: 66°F , 19°C
Humidity: 83%
Barometer: 30.04 inHg , 1017.3 hPa
Clouds: Overcast
Visibility: 10 miles , 16 km
Cloud details: Few Clouds 1600 ft
Overcast 4000 ft
2018/08/19 20:51 KNYC 192051Z AUTO 04004KT 10SM FEW016 OVC040 22/19 A3004 RMK AO2 RAE1959 SLP162 P0000 60000 T02220189 53003 $